Time;durP1;ratioP1;P1;durP2;ratioP2;P2;SDS_P1;SDS_P2;PMS_P1;PMS_P2;Temp;Humidity;BMP_temperature;BMP_pressure;BME280_temperature;BME280_humidity;BME280_pressure;Samples;Min_cycle;Max_cycle;Signal;HPM_P1;HPM_P2
2023/03/17 00:01:57;;;;;;;46.40;24.00;;;0.80;99.90;;;;;;5052432;28;20258;-71
2023/03/17 00:04:27;;;;;;;54.37;25.63;;;0.80;99.90;;;;;;5052584;28;20194;-70
2023/03/17 00:06:56;;;;;;;52.43;26.33;;;0.90;99.90;;;;;;5051853;28;20199;-70
2023/03/17 00:09:25;;;;;;;48.87;25.23;;;0.90;99.90;;;;;;5052565;28;20221;-70
2023/03/17 00:11:54;;;;;;;52.23;24.53;;;1.00;99.90;;;;;;5052334;28;20217;-71
2023/03/17 00:14:23;;;;;;;44.40;23.17;;;1.30;99.90;;;;;;5052341;28;20220;-69
2023/03/17 00:16:53;;;;;;;45.23;23.03;;;1.50;99.90;;;;;;5052216;28;20711;-71
2023/03/17 00:19:29;;;;;;;49.73;23.47;;;1.60;99.90;;;;;;5052282;28;20733;-70
2023/03/17 00:21:59;;;;;;;49.50;25.30;;;1.40;99.90;;;;;;5052132;28;20612;-70
2023/03/17 00:24:28;;;;;;;52.73;26.20;;;1.50;99.90;;;;;;5052204;28;20231;-70
2023/03/17 00:26:57;;;;;;;48.80;24.90;;;1.60;99.90;;;;;;5052198;28;20622;-71
2023/03/17 00:29:26;;;;;;;45.77;24.50;;;1.70;99.90;;;;;;5050979;28;20207;-70
2023/03/17 00:31:57;;;;;;;55.97;25.10;;;1.70;99.90;;;;;;5051759;28;20218;-71
2023/03/17 00:34:28;;;;;;;49.37;24.37;;;1.70;99.90;;;;;;5050821;28;20202;-73
2023/03/17 00:36:57;;;;;;;45.63;23.43;;;1.80;99.90;;;;;;5051975;28;20221;-71
2023/03/17 00:39:26;;;;;;;53.97;24.60;;;1.90;99.90;;;;;;5051994;28;20238;-71
2023/03/17 00:41:55;;;;;;;53.33;26.57;;;1.70;99.90;;;;;;5052068;28;20198;-70
2023/03/17 00:44:24;;;;;;;59.37;27.93;;;1.70;99.90;;;;;;5051855;28;20618;-70
2023/03/17 00:46:55;;;;;;;59.43;27.10;;;1.70;99.90;;;;;;5084083;28;20194;-70
2023/03/17 00:49:25;;;;;;;49.37;24.43;;;1.60;99.90;;;;;;5051795;28;20205;-71
2023/03/17 00:51:55;;;;;;;50.30;24.80;;;1.50;99.90;;;;;;5050490;28;20275;-69
2023/03/17 00:54:24;;;;;;;45.87;25.87;;;1.60;99.90;;;;;;5051763;28;20311;-69
2023/03/17 00:56:53;;;;;;;44.07;23.73;;;1.60;99.90;;;;;;5050531;28;20206;-66
2023/03/17 00:59:28;;;;;;;50.50;24.10;;;1.70;99.90;;;;;;5051829;28;20189;-70
2023/03/17 01:01:57;;;;;;;47.43;25.13;;;1.60;99.90;;;;;;5051579;28;20711;-67
2023/03/17 01:04:26;;;;;;;53.53;27.40;;;1.80;99.90;;;;;;5051781;28;20615;-67
2023/03/17 01:06:58;;;;;;;52.17;29.23;;;1.90;99.90;;;;;;5051647;28;20194;-66
2023/03/17 01:09:27;;;;;;;56.43;29.37;;;1.90;99.90;;;;;;5051591;28;20198;-70
2023/03/17 01:11:58;;;;;;;54.97;27.50;;;1.70;99.90;;;;;;5050246;28;20238;-69
2023/03/17 01:14:27;;;;;;;52.50;29.13;;;1.50;99.90;;;;;;5051570;28;20288;-70
2023/03/17 01:16:56;;;;;;;55.97;29.10;;;1.70;99.90;;;;;;5052114;28;20664;-67
2023/03/17 01:19:24;;;;;;;54.80;28.27;;;1.80;99.90;;;;;;5055696;28;20272;-69
2023/03/17 01:21:53;;;;;;;54.47;29.37;;;1.80;99.90;;;;;;5055523;28;20197;-67
2023/03/17 01:24:25;;;;;;;62.53;30.67;;;1.80;99.90;;;;;;5054310;28;20212;-71
2023/03/17 01:26:53;;;;;;;56.40;29.60;;;1.80;99.90;;;;;;5055514;28;20198;-67
2023/03/17 01:29:22;;;;;;;62.33;29.77;;;1.70;99.90;;;;;;5055423;28;20202;-68
2023/03/17 01:31:51;;;;;;;70.37;33.00;;;1.60;99.90;;;;;;5055276;28;20719;-70
2023/03/17 01:34:20;;;;;;;61.50;32.67;;;1.40;99.90;;;;;;5055332;28;20714;-69
2023/03/17 01:36:49;;;;;;;57.70;30.10;;;1.30;99.90;;;;;;5055271;28;20660;-70
2023/03/17 01:39:18;;;;;;;56.70;30.63;;;1.40;99.90;;;;;;5055330;28;20224;-68
2023/03/17 01:41:48;;;;;;;54.77;30.67;;;1.40;99.90;;;;;;5055336;28;20730;-69
2023/03/17 01:44:18;;;;;;;63.00;32.63;;;1.60;99.90;;;;;;5055192;28;20239;-69
2023/03/17 01:46:48;;;;;;;64.77;32.33;;;1.60;99.90;;;;;;5055199;28;20531;-70
2023/03/17 01:49:21;;;;;;;64.30;34.07;;;1.60;99.90;;;;;;5053876;28;20229;-71
2023/03/17 01:52:02;;;;;;;63.13;33.30;;;1.70;99.90;;;;;;5054987;28;20313;-70
2023/03/17 01:54:35;;;;;;;62.97;31.83;;;1.80;99.90;;;;;;5054930;28;20190;-70
2023/03/17 01:57:10;;;;;;;55.63;30.97;;;1.70;99.90;;;;;;5054879;28;20194;-67
2023/03/17 01:59:44;;;;;;;56.53;29.10;;;1.90;99.90;;;;;;5053250;28;20240;-67
2023/03/17 02:02:17;;;;;;;57.50;30.53;;;2.00;99.90;;;;;;5054857;28;20194;-70
2023/03/17 02:04:46;;;;;;;59.47;31.53;;;2.10;99.90;;;;;;5054867;28;20197;-70
2023/03/17 02:07:15;;;;;;;56.80;28.33;;;2.00;99.90;;;;;;5054877;28;20190;-70
2023/03/17 02:09:44;;;;;;;56.40;30.23;;;2.10;99.90;;;;;;5054960;28;20304;-68
2023/03/17 02:12:15;;;;;;;55.00;29.07;;;2.00;99.90;;;;;;5055046;28;20225;-69
2023/03/17 02:14:44;;;;;;;58.30;29.67;;;1.90;99.90;;;;;;5053184;28;20644;-70
2023/03/17 02:17:13;;;;;;;49.43;28.80;;;1.70;99.90;;;;;;5053180;28;20205;-71
2023/03/17 02:19:43;;;;;;;53.03;28.43;;;1.90;99.90;;;;;;5053306;28;20220;-69
2023/03/17 02:22:13;;;;;;;58.27;29.50;;;2.00;99.90;;;;;;5054511;28;20185;-70
2023/03/17 02:24:49;;;;;;;53.73;29.77;;;2.10;99.90;;;;;;5053200;28;20211;-68
2023/03/17 02:27:22;;;;;;;51.50;28.33;;;2.20;99.90;;;;;;5054362;28;20285;-67
2023/03/17 02:29:53;;;;;;;48.57;26.23;;;2.30;99.90;;;;;;5053578;28;20718;-70
2023/03/17 02:32:22;;;;;;;52.40;26.53;;;2.30;99.90;;;;;;5054047;28;20304;-71
2023/03/17 02:34:51;;;;;;;43.33;23.30;;;2.40;99.90;;;;;;5054196;28;20194;-66
2023/03/17 02:37:21;;;;;;;46.23;25.87;;;2.40;99.90;;;;;;5054062;28;20190;-68
2023/03/17 02:39:49;;;;;;;46.43;24.20;;;2.40;99.90;;;;;;5054060;28;20281;-69
2023/03/17 02:42:18;;;;;;;40.97;21.97;;;2.50;99.90;;;;;;5054161;28;20704;-70
2023/03/17 02:44:47;;;;;;;37.73;19.97;;;2.40;99.90;;;;;;5054023;28;20224;-68
2023/03/17 02:47:16;;;;;;;43.33;19.30;;;2.40;99.90;;;;;;5053975;28;20192;-69
2023/03/17 02:49:45;;;;;;;38.07;18.37;;;2.30;99.90;;;;;;5053955;28;20204;-70
2023/03/17 02:52:14;;;;;;;36.83;17.77;;;2.40;99.90;;;;;;5053845;28;20221;-70
2023/03/17 02:54:44;;;;;;;33.50;17.47;;;2.60;99.90;;;;;;5053790;28;20731;-67
2023/03/17 02:57:13;;;;;;;26.40;14.90;;;2.60;99.90;;;;;;5053813;28;20723;-68
2023/03/17 02:59:41;;;;;;;41.10;22.00;;;2.70;99.90;;;;;;5053636;28;20198;-69
2023/03/17 03:02:10;;;;;;;40.20;22.00;;;2.70;99.90;;;;;;5053578;28;20573;-67
2023/03/17 03:04:39;;;;;;;42.43;21.97;;;2.70;99.90;;;;;;5053535;28;20195;-67
2023/03/17 03:07:07;;;;;;;40.93;20.73;;;2.70;99.90;;;;;;5053608;28;20280;-68
2023/03/17 03:09:36;;;;;;;37.73;20.77;;;2.80;99.90;;;;;;5053506;28;20209;-66
2023/03/17 03:12:08;;;;;;;34.77;18.77;;;2.80;99.90;;;;;;5053574;28;20228;-68
2023/03/17 03:14:37;;;;;;;32.93;17.53;;;2.80;99.90;;;;;;5053926;28;20702;-70
2023/03/17 03:17:06;;;;;;;29.20;16.07;;;2.80;99.90;;;;;;5053154;28;20203;-69
2023/03/17 03:19:34;;;;;;;21.67;12.27;;;2.80;99.90;;;;;;5053387;28;20243;-70
2023/03/17 03:22:03;;;;;;;21.37;11.47;;;2.80;99.90;;;;;;5053199;28;20202;-70
2023/03/17 03:24:32;;;;;;;28.23;11.70;;;2.90;99.90;;;;;;5053396;28;20564;-69
2023/03/17 03:27:00;;;;;;;26.20;14.63;;;2.80;99.90;;;;;;5053193;28;20198;-67
2023/03/17 03:29:30;;;;;;;22.37;11.60;;;2.90;99.90;;;;;;5053707;28;20207;-67
2023/03/17 03:31:59;;;;;;;23.43;12.10;;;3.00;99.90;;;;;;5052868;28;20218;-68
2023/03/17 03:34:28;;;;;;;22.73;12.50;;;3.00;99.90;;;;;;5053009;28;20216;-68
2023/03/17 03:36:56;;;;;;;22.87;12.43;;;3.10;99.90;;;;;;5053057;28;20271;-70
2023/03/17 03:39:25;;;;;;;16.33;8.73;;;3.10;99.90;;;;;;5052971;28;20192;-67
2023/03/17 03:41:57;;;;;;;18.63;10.57;;;3.00;99.90;;;;;;5051748;28;20679;-65
2023/03/17 03:44:26;;;;;;;22.27;12.50;;;3.00;99.90;;;;;;5052964;28;20217;-71
2023/03/17 03:46:56;;;;;;;21.00;11.80;;;3.10;99.90;;;;;;5052857;28;20199;-67
2023/03/17 03:49:24;;;;;;;15.87;8.97;;;3.10;99.90;;;;;;5052731;28;20564;-69
2023/03/17 03:51:53;;;;;;;21.57;10.13;;;3.10;99.90;;;;;;5052652;28;20205;-70
2023/03/17 03:54:21;;;;;;;12.70;7.60;;;3.20;99.90;;;;;;5052682;28;20194;-70
2023/03/17 03:56:50;;;;;;;14.50;5.83;;;3.10;99.90;;;;;;5052769;28;20234;-67
2023/03/17 03:59:19;;;;;;;11.37;5.83;;;3.10;97.10;;;;;;5052659;28;20198;-70
2023/03/17 04:01:48;;;;;;;8.33;4.87;;;3.10;98.00;;;;;;5052402;28;20229;-71
2023/03/17 04:04:18;;;;;;;8.93;5.40;;;2.90;95.40;;;;;;5052679;28;20277;-70
2023/03/17 04:06:47;;;;;;;9.40;4.00;;;2.90;97.80;;;;;;5052613;28;20249;-67
2023/03/17 04:09:16;;;;;;;8.77;4.00;;;2.90;97.10;;;;;;5052572;28;20205;-68
2023/03/17 04:11:45;;;;;;;12.63;4.57;;;2.80;95.90;;;;;;5052545;28;20654;-70
2023/03/17 04:14:13;;;;;;;7.00;4.20;;;2.80;97.00;;;;;;5052444;28;20716;-66
2023/03/17 04:16:42;;;;;;;7.07;4.53;;;3.00;96.40;;;;;;5052122;28;20217;-68
2023/03/17 04:19:11;;;;;;;9.83;5.20;;;2.80;95.80;;;;;;5052442;28;20195;-70
2023/03/17 04:21:42;;;;;;;4.93;4.40;;;3.00;94.50;;;;;;5052368;28;20213;-69
2023/03/17 04:24:10;;;;;;;6.40;3.80;;;3.10;94.80;;;;;;5052091;28;20252;-68
2023/03/17 04:26:40;;;;;;;5.20;3.63;;;3.10;93.70;;;;;;5052228;28;20217;-67
2023/03/17 04:29:14;;;;;;;6.43;4.13;;;3.00;94.60;;;;;;5052031;28;20718;-68
2023/03/17 04:31:42;;;;;;;6.77;4.20;;;3.10;94.70;;;;;;5052047;28;20685;-69
2023/03/17 04:34:15;;;;;;;6.43;3.97;;;3.10;95.20;;;;;;5051924;28;20227;-70
2023/03/17 04:36:47;;;;;;;8.90;4.10;;;2.90;95.30;;;;;;5052091;28;20220;-68
2023/03/17 04:39:17;;;;;;;7.73;3.90;;;3.20;95.80;;;;;;5051949;28;20195;-68
2023/03/17 04:41:46;;;;;;;7.20;4.47;;;3.40;94.60;;;;;;5052060;28;20209;-70
2023/03/17 04:44:14;;;;;;;6.23;3.97;;;3.50;93.70;;;;;;5051974;28;20624;-67
2023/03/17 04:46:43;;;;;;;10.77;4.60;;;3.60;93.70;;;;;;5051973;28;20226;-67
2023/03/17 04:49:12;;;;;;;4.83;4.10;;;3.50;93.20;;;;;;5051731;28;20281;-69
2023/03/17 04:51:40;;;;;;;8.03;4.60;;;3.70;92.80;;;;;;5051524;28;20222;-68
2023/03/17 04:54:11;;;;;;;9.90;4.17;;;3.70;92.70;;;;;;5051566;28;20693;-68
2023/03/17 04:56:39;;;;;;;7.70;4.53;;;3.70;91.70;;;;;;5051668;28;20273;-68
2023/03/17 04:59:08;;;;;;;11.77;4.30;;;3.70;91.90;;;;;;5051643;28;20208;-68
2023/03/17 05:01:37;;;;;;;10.97;4.30;;;3.50;92.70;;;;;;5051459;28;20230;-68
2023/03/17 05:04:08;;;;;;;7.17;4.20;;;3.60;92.50;;;;;;5051615;28;20199;-69
2023/03/17 05:06:40;;;;;;;10.27;4.60;;;3.70;92.90;;;;;;5051534;28;20209;-69
2023/03/17 05:09:10;;;;;;;7.47;4.33;;;3.70;91.60;;;;;;5051563;28;20191;-68
2023/03/17 05:11:40;;;;;;;7.53;4.23;;;3.80;92.20;;;;;;5051552;28;20580;-67
2023/03/17 05:14:08;;;;;;;6.33;4.30;;;3.70;91.20;;;;;;5051587;28;20222;-70
2023/03/17 05:16:37;;;;;;;10.30;5.90;;;3.80;92.30;;;;;;5051572;28;20191;-69
2023/03/17 05:19:06;;;;;;;12.67;7.33;;;3.80;92.60;;;;;;5051270;28;20200;-67
2023/03/17 05:21:35;;;;;;;16.30;7.23;;;3.90;92.20;;;;;;5051422;28;20405;-67
2023/03/17 05:24:03;;;;;;;13.17;8.30;;;3.90;92.50;;;;;;5051440;28;20278;-69
2023/03/17 05:26:34;;;;;;;19.07;10.33;;;3.90;93.30;;;;;;5051403;28;20675;-70
2023/03/17 05:29:02;;;;;;;18.93;8.70;;;4.00;93.30;;;;;;5051363;28;20196;-68
2023/03/17 05:31:31;;;;;;;16.10;8.20;;;3.90;93.30;;;;;;5051366;28;20683;-67
2023/03/17 05:34:01;;;;;;;13.60;9.70;;;3.80;94.40;;;;;;5051225;28;20223;-70
2023/03/17 05:36:29;;;;;;;16.07;8.80;;;3.80;94.90;;;;;;5051607;28;20220;-69
2023/03/17 05:38:58;;;;;;;10.30;7.07;;;3.80;95.60;;;;;;5051371;28;20191;-67
2023/03/17 05:41:27;;;;;;;23.73;10.80;;;3.80;95.80;;;;;;5051514;28;20207;-67
2023/03/17 05:43:57;;;;;;;29.97;18.67;;;4.00;95.00;;;;;;5051368;28;20207;-70
2023/03/17 05:46:26;;;;;;;45.83;29.33;;;4.10;95.40;;;;;;5051334;28;20317;-70
2023/03/17 05:48:55;;;;;;;50.97;37.17;;;4.10;95.20;;;;;;5051119;28;20196;-69
2023/03/17 05:51:24;;;;;;;20.33;13.23;;;4.20;95.80;;;;;;5051172;28;20746;-66
2023/03/17 05:53:52;;;;;;;18.10;11.83;;;4.00;96.20;;;;;;5051177;28;20594;-68
2023/03/17 05:56:21;;;;;;;20.87;11.27;;;4.10;96.40;;;;;;5051412;28;20573;-69
2023/03/17 05:58:50;;;;;;;19.50;10.07;;;4.20;95.40;;;;;;5051212;28;20293;-68
2023/03/17 06:01:20;;;;;;;26.50;16.90;;;4.20;95.30;;;;;;5051106;28;20236;-68
2023/03/17 06:03:49;;;;;;;28.07;18.53;;;4.30;95.20;;;;;;5051625;28;20616;-67
2023/03/17 06:06:18;;;;;;;18.87;12.40;;;4.30;95.40;;;;;;5054943;28;20200;-67
2023/03/17 06:08:46;;;;;;;21.20;11.70;;;4.30;95.30;;;;;;5054878;28;20204;-67
2023/03/17 06:11:15;;;;;;;39.00;19.20;;;4.40;94.70;;;;;;5054978;28;20197;-67
2023/03/17 06:13:43;;;;;;;26.97;14.03;;;4.40;95.10;;;;;;5054625;28;20311;-68
2023/03/17 06:16:12;;;;;;;47.60;21.53;;;4.20;95.80;;;;;;5054642;28;20282;-67
2023/03/17 06:18:42;;;;;;;57.63;25.57;;;4.40;96.00;;;;;;5054547;28;20203;-66
2023/03/17 06:21:11;;;;;;;40.70;20.60;;;4.50;96.30;;;;;;5054597;28;20204;-67
2023/03/17 06:23:40;;;;;;;49.43;23.73;;;4.60;95.80;;;;;;5054619;28;20227;-64
2023/03/17 06:26:09;;;;;;;40.03;23.10;;;4.70;96.00;;;;;;5054441;28;20219;-67
2023/03/17 06:28:37;;;;;;;42.50;21.30;;;4.70;96.50;;;;;;5054515;28;20209;-68
2023/03/17 06:31:07;;;;;;;27.93;16.13;;;4.70;96.90;;;;;;5054333;28;20545;-66
2023/03/17 06:33:36;;;;;;;22.77;15.43;;;4.80;96.00;;;;;;5054379;28;20602;-65
2023/03/17 06:36:07;;;;;;;27.77;15.60;;;4.90;96.70;;;;;;5054339;28;20213;-65
2023/03/17 06:38:36;;;;;;;24.87;15.63;;;4.80;96.90;;;;;;5054263;28;20211;-69
2023/03/17 06:41:05;;;;;;;33.73;15.43;;;5.00;97.30;;;;;;5054256;28;20199;-66
2023/03/17 06:43:34;;;;;;;25.83;15.90;;;5.10;96.60;;;;;;5054068;28;20209;-64
2023/03/17 06:46:02;;;;;;;27.43;15.53;;;5.00;96.40;;;;;;5054071;28;20264;-67
2023/03/17 06:48:32;;;;;;;19.63;12.20;;;5.00;96.30;;;;;;5053907;28;20192;-65
2023/03/17 06:51:01;;;;;;;26.00;14.30;;;5.00;96.10;;;;;;5054040;28;20262;-67
2023/03/17 06:53:32;;;;;;;20.27;12.37;;;5.20;96.70;;;;;;5053746;28;20194;-66
2023/03/17 06:56:00;;;;;;;15.47;11.60;;;5.20;95.50;;;;;;5053964;28;20226;-65
2023/03/17 06:58:29;;;;;;;13.37;9.37;;;5.00;97.00;;;;;;5054014;28;20566;-65
2023/03/17 07:00:59;;;;;;;15.57;10.57;;;4.80;97.80;;;;;;5053691;28;20239;-70
2023/03/17 07:03:27;;;;;;;19.83;10.77;;;4.90;97.70;;;;;;5053633;28;20276;-68
2023/03/17 07:05:56;;;;;;;15.53;8.97;;;4.90;97.00;;;;;;5053793;28;20203;-69
2023/03/17 07:08:25;;;;;;;13.87;9.93;;;4.90;97.40;;;;;;5053714;28;20689;-68
2023/03/17 07:10:57;;;;;;;17.53;9.47;;;5.10;97.10;;;;;;5053449;28;20184;-68
2023/03/17 07:13:26;;;;;;;17.77;11.07;;;4.80;98.00;;;;;;5053566;28;20218;-67
2023/03/17 07:15:56;;;;;;;17.43;11.87;;;4.90;97.60;;;;;;5053142;28;20705;-69
2023/03/17 07:18:28;;;;;;;18.53;11.83;;;5.10;97.20;;;;;;5053406;28;20559;-67
2023/03/17 07:20:57;;;;;;;14.63;10.43;;;5.30;96.70;;;;;;5053392;28;20197;-68
2023/03/17 07:23:25;;;;;;;12.83;9.70;;;5.10;93.80;;;;;;5053270;28;20299;-67
2023/03/17 07:25:56;;;;;;;15.47;9.37;;;4.90;95.80;;;;;;5053483;28;20208;-67
2023/03/17 07:28:25;;;;;;;13.07;9.07;;;4.90;96.90;;;;;;5053418;28;20198;-71
2023/03/17 07:30:56;;;;;;;13.23;9.50;;;5.00;96.70;;;;;;5053270;28;20363;-71
2023/03/17 07:33:25;;;;;;;14.53;9.03;;;5.20;94.70;;;;;;5053136;28;20267;-68
2023/03/17 07:35:54;;;;;;;12.20;9.30;;;5.00;92.70;;;;;;5053154;28;20216;-71
2023/03/17 07:38:22;;;;;;;12.07;8.83;;;5.00;95.10;;;;;;5053338;28;20275;-70
2023/03/17 07:40:51;;;;;;;17.00;9.73;;;4.80;95.10;;;;;;5052148;28;20609;-70
2023/03/17 07:43:22;;;;;;;14.37;10.43;;;5.10;95.40;;;;;;5053011;28;20254;-70
2023/03/17 07:45:51;;;;;;;14.90;10.20;;;5.10;94.80;;;;;;5051780;28;20543;-71
2023/03/17 07:48:20;;;;;;;13.00;10.27;;;5.40;93.50;;;;;;5052850;28;20188;-66
2023/03/17 07:50:48;;;;;;;12.00;8.07;;;5.70;90.90;;;;;;5053093;28;20190;-72
2023/03/17 07:53:17;;;;;;;14.30;10.47;;;5.60;86.80;;;;;;5052979;28;20208;-71
2023/03/17 07:55:46;;;;;;;16.93;10.40;;;5.80;90.30;;;;;;5052903;28;20230;-68
2023/03/17 07:58:15;;;;;;;15.13;10.40;;;6.10;86.50;;;;;;5052766;28;20284;-71
2023/03/17 08:00:45;;;;;;;47.37;27.60;;;6.60;81.20;;;;;;5052567;28;20230;-69
2023/03/17 08:03:14;;;;;;;45.60;27.87;;;6.80;82.30;;;;;;5052528;28;20217;-70
2023/03/17 08:05:43;;;;;;;42.87;26.10;;;7.60;87.00;;;;;;5052596;28;20190;-70
2023/03/17 08:08:11;;;;;;;44.00;26.43;;;8.30;74.00;;;;;;5052520;28;20193;-71
2023/03/17 08:10:40;;;;;;;16.23;11.47;;;9.00;71.90;;;;;;5052353;28;20675;-71
2023/03/17 08:13:09;;;;;;;46.47;27.77;;;9.40;63.20;;;;;;5051179;28;20545;-70
2023/03/17 08:15:37;;;;;;;18.30;12.17;;;9.50;67.30;;;;;;5052254;28;20221;-67
2023/03/17 08:18:07;;;;;;;18.33;11.93;;;9.10;60.80;;;;;;5052133;28;20190;-65
2023/03/17 08:20:36;;;;;;;20.40;13.13;;;9.40;62.70;;;;;;5050744;28;20584;-65
2023/03/17 08:23:05;;;;;;;12.83;10.13;;;9.60;61.60;;;;;;5052583;28;20205;-66
2023/03/17 08:25:34;;;;;;;10.07;7.27;;;9.00;60.10;;;;;;5052812;28;20198;-69
2023/03/17 08:28:03;;;;;;;8.63;6.80;;;8.30;60.00;;;;;;5052032;28;20198;-66
2023/03/17 08:30:33;;;;;;;13.07;8.03;;;7.40;63.10;;;;;;5052611;28;20640;-67
2023/03/17 08:33:02;;;;;;;10.73;7.63;;;7.30;65.50;;;;;;5052205;28;20201;-65
2023/03/17 08:35:34;;;;;;;9.73;6.80;;;7.30;66.00;;;;;;5067013;28;20266;-67
2023/03/17 08:38:03;;;;;;;13.83;9.10;;;7.60;64.50;;;;;;5072321;28;20201;-67
2023/03/17 08:40:32;;;;;;;10.20;6.30;;;7.50;65.00;;;;;;5072256;28;20203;-65
2023/03/17 08:43:01;;;;;;;12.17;7.80;;;7.70;63.90;;;;;;5072282;28;20224;-67
2023/03/17 08:45:29;;;;;;;8.40;6.47;;;7.90;63.10;;;;;;5072198;28;20185;-68
2023/03/17 08:47:58;;;;;;;9.47;7.23;;;7.70;62.00;;;;;;5072339;28;20617;-66
2023/03/17 08:50:28;;;;;;;10.33;6.60;;;8.00;61.70;;;;;;5071632;28;20192;-66
2023/03/17 08:52:58;;;;;;;10.43;6.27;;;8.10;60.80;;;;;;5072321;28;20263;-66
2023/03/17 08:55:27;;;;;;;8.93;6.13;;;7.80;60.60;;;;;;5071938;28;20240;-65
2023/03/17 08:57:56;;;;;;;8.43;5.90;;;8.10;59.90;;;;;;5071951;28;20221;-65
2023/03/17 09:00:25;;;;;;;7.50;5.43;;;7.70;60.00;;;;;;5072005;28;20230;-66
2023/03/17 09:02:55;;;;;;;8.53;6.03;;;7.50;60.60;;;;;;5072209;28;20552;-66
2023/03/17 09:05:25;;;;;;;9.50;6.17;;;7.70;60.80;;;;;;5070964;28;20296;-66
2023/03/17 09:07:54;;;;;;;9.80;6.27;;;7.70;60.00;;;;;;5071899;28;20193;-65
2023/03/17 09:10:24;;;;;;;13.43;8.87;;;7.90;59.60;;;;;;5071844;28;20193;-67
2023/03/17 09:12:53;;;;;;;10.50;6.87;;;8.50;59.70;;;;;;5072241;28;20243;-65
2023/03/17 09:15:21;;;;;;;13.27;6.83;;;8.10;58.80;;;;;;5071687;28;20206;-65
2023/03/17 09:17:50;;;;;;;12.50;6.60;;;8.40;58.50;;;;;;5071651;28;20203;-65
2023/03/17 09:20:19;;;;;;;13.27;7.10;;;8.00;59.00;;;;;;5071489;28;20201;-69
2023/03/17 09:22:48;;;;;;;10.70;7.33;;;7.80;59.90;;;;;;5071968;28;20197;-67
2023/03/17 09:25:17;;;;;;;8.90;7.10;;;8.10;59.20;;;;;;5071736;28;20201;-65
2023/03/17 09:27:48;;;;;;;11.47;7.57;;;8.10;59.00;;;;;;5071755;28;20225;-66
2023/03/17 09:30:17;;;;;;;9.37;7.00;;;8.00;58.90;;;;;;5071825;28;20292;-67
2023/03/17 09:32:46;;;;;;;17.30;7.97;;;7.90;59.30;;;;;;5071943;28;20191;-67
2023/03/17 09:35:15;;;;;;;10.70;7.30;;;8.00;59.30;;;;;;5070792;28;20235;-66
2023/03/17 09:37:44;;;;;;;15.33;8.73;;;8.30;59.00;;;;;;5072022;28;20195;-66
2023/03/17 09:40:17;;;;;;;13.40;8.83;;;8.60;58.10;;;;;;5075780;28;20198;-68
2023/03/17 09:43:01;;;;;;;11.03;7.73;;;8.50;57.70;;;;;;5076059;28;20292;-65
2023/03/17 09:45:33;;;;;;;13.47;9.10;;;8.50;57.30;;;;;;5075592;28;20354;-65
2023/03/17 09:48:25;;;;;;;14.27;7.53;;;8.40;57.70;;;;;;5073288;28;20600;-69
2023/03/17 09:50:57;;;;;;;10.07;7.97;;;9.00;57.20;;;;;;5075483;28;20197;-68
2023/03/17 09:53:32;;;;;;;10.70;8.40;;;9.00;56.30;;;;;;5075418;28;20247;-65
2023/03/17 09:56:06;;;;;;;11.97;8.70;;;9.10;56.60;;;;;;5075284;28;20247;-66
2023/03/17 09:58:38;;;;;;;11.93;7.27;;;9.90;55.70;;;;;;5073556;28;20261;-70
2023/03/17 10:01:11;;;;;;;14.43;7.50;;;10.10;53.20;;;;;;5074552;28;20578;-68
2023/03/17 10:03:41;;;;;;;9.17;7.67;;;9.50;53.90;;;;;;5071714;28;20627;-67
2023/03/17 10:06:33;;;;;;;12.77;8.67;;;10.00;53.80;;;;;;5073731;28;20236;-67
2023/03/17 10:09:11;;;;;;;12.37;7.37;;;9.70;53.10;;;;;;5075143;28;20200;-71
2023/03/17 10:11:42;;;;;;;11.77;7.07;;;10.10;53.40;;;;;;5075041;28;20201;-66
2023/03/17 10:14:27;;;;;;;12.37;8.20;;;9.20;53.10;;;;;;5075031;28;20215;-67
2023/03/17 10:17:01;;;;;;;12.97;7.63;;;9.60;54.00;;;;;;5074663;28;20314;-69
2023/03/17 10:19:35;;;;;;;7.97;6.73;;;10.30;52.80;;;;;;5074395;28;20605;-70
2023/03/17 10:22:10;;;;;;;10.43;6.87;;;10.10;51.50;;;;;;5074190;28;20208;-70
2023/03/17 10:24:43;;;;;;;9.47;6.73;;;9.70;52.20;;;;;;5074231;28;20196;-71
2023/03/17 10:27:15;;;;;;;14.77;7.60;;;9.40;52.00;;;;;;5074253;28;20200;-68
2023/03/17 10:29:46;;;;;;;11.33;6.73;;;9.80;52.20;;;;;;5074416;28;20196;-70
2023/03/17 10:32:16;;;;;;;17.70;8.07;;;10.20;51.50;;;;;;5074254;28;20207;-69
2023/03/17 10:34:47;;;;;;;12.60;8.27;;;9.80;51.60;;;;;;5074225;28;20207;-71
2023/03/17 10:37:19;;;;;;;18.27;11.37;;;9.70;51.60;;;;;;5073974;28;20220;-71
2023/03/17 10:39:50;;;;;;;13.90;8.43;;;10.10;52.00;;;;;;5074206;28;20196;-72
2023/03/17 10:42:24;;;;;;;9.57;6.63;;;10.10;51.80;;;;;;5074094;28;20218;-73
2023/03/17 10:44:56;;;;;;;15.20;7.90;;;9.60;51.40;;;;;;5074439;28;20265;-72
2023/03/17 10:47:30;;;;;;;15.93;8.80;;;9.30;52.20;;;;;;5074337;28;20217;-69
2023/03/17 10:50:04;;;;;;;12.37;7.73;;;9.00;52.50;;;;;;5073584;28;20192;-72
2023/03/17 10:52:39;;;;;;;14.57;8.40;;;9.20;52.50;;;;;;5074193;28;20560;-73
2023/03/17 10:55:12;;;;;;;11.53;7.03;;;8.90;53.00;;;;;;5074105;28;20208;-74
2023/03/17 10:57:48;;;;;;;14.30;7.87;;;8.90;53.00;;;;;;5073736;28;20285;-69
2023/03/17 11:00:21;;;;;;;9.37;7.27;;;9.50;52.50;;;;;;5073989;28;20630;-73
2023/03/17 11:02:56;;;;;;;12.87;7.87;;;9.80;51.50;;;;;;5073875;28;20189;-68
2023/03/17 11:05:27;;;;;;;10.47;6.57;;;9.80;51.10;;;;;;5073953;28;20274;-68
2023/03/17 11:08:09;;;;;;;19.60;7.73;;;9.80;51.10;;;;;;5073866;28;20208;-71
2023/03/17 11:10:40;;;;;;;18.30;10.97;;;9.80;50.70;;;;;;5073641;28;20200;-73
2023/03/17 11:13:09;;;;;;;13.73;8.83;;;9.70;50.70;;;;;;5073830;28;20204;-69
2023/03/17 11:15:46;;;;;;;12.07;6.93;;;10.40;50.30;;;;;;5073708;28;20196;-70
2023/03/17 11:18:19;;;;;;;9.60;6.07;;;10.50;48.70;;;;;;5073618;28;20228;-68
2023/03/17 11:20:53;;;;;;;11.10;7.47;;;10.00;49.20;;;;;;5073427;28;20225;-69
2023/03/17 11:23:47;;;;;;;13.60;9.63;;;10.40;49.80;;;;;;5073668;28;20200;-69
2023/03/17 11:26:41;;;;;;;13.13;8.60;;;11.50;49.20;;;;;;5073319;28;20751;-68
2023/03/17 11:29:34;;;;;;;12.03;8.00;;;11.40;48.00;;;;;;5073213;28;20247;-68
2023/03/17 11:32:17;;;;;;;14.03;8.07;;;11.30;47.30;;;;;;5011358;28;20227;-70
2023/03/17 11:34:58;;;;;;;13.57;8.17;;;12.30;46.90;;;;;;5011147;28;20265;-68
2023/03/17 11:37:48;;;;;;;22.17;10.37;;;12.90;45.80;;;;;;5011135;28;20223;-69
2023/03/17 11:40:22;;;;;;;15.20;8.23;;;11.90;46.00;;;;;;5011242;28;20207;-67
2023/03/17 11:43:04;;;;;;;8.83;6.73;;;12.00;46.00;;;;;;5011150;28;20242;-65
2023/03/17 11:45:38;;;;;;;12.00;7.63;;;12.60;45.70;;;;;;5011117;28;20247;-67
2023/03/17 11:48:17;;;;;;;10.10;6.83;;;12.40;44.50;;;;;;5010827;28;20200;-65
2023/03/17 11:50:55;;;;;;;12.10;5.77;;;11.40;45.90;;;;;;5010925;28;20242;-68
2023/03/17 11:53:59;;;;;;;11.83;6.87;;;11.80;45.20;;;;;;5010969;28;20198;-67
2023/03/17 11:56:38;;;;;;;8.23;5.33;;;12.70;44.70;;;;;;4951883;29;20238;-68
2023/03/17 11:59:15;;;;;;;9.87;6.60;;;12.00;42.40;;;;;;4952514;29;20225;-66
2023/03/17 12:01:54;;;;;;;16.93;6.30;;;11.70;44.10;;;;;;4951365;28;20230;-72
2023/03/17 12:04:33;;;;;;;10.20;7.17;;;11.50;44.00;;;;;;4952384;29;20202;-66
2023/03/17 12:07:08;;;;;;;10.87;4.77;;;12.10;43.60;;;;;;4952476;29;20266;-65
2023/03/17 12:09:41;;;;;;;11.40;6.23;;;11.70;43.00;;;;;;4975834;28;20205;-66
2023/03/17 12:12:13;;;;;;;9.10;5.27;;;11.70;43.60;;;;;;4990856;28;20204;-67
2023/03/17 12:14:47;;;;;;;17.93;9.33;;;11.90;42.70;;;;;;4990960;28;20214;-68
2023/03/17 12:17:21;;;;;;;21.30;8.57;;;12.10;43.30;;;;;;4990748;28;20282;-68
2023/03/17 12:20:05;;;;;;;14.63;9.77;;;12.50;42.90;;;;;;4990720;28;20299;-68
2023/03/17 12:22:39;;;;;;;12.00;6.97;;;12.50;42.50;;;;;;4990875;28;20678;-71
2023/03/17 12:25:16;;;;;;;8.43;5.33;;;12.60;42.30;;;;;;4990800;28;20210;-71
2023/03/17 12:27:53;;;;;;;12.87;6.53;;;12.60;41.20;;;;;;4990622;28;20277;-70
2023/03/17 12:30:28;;;;;;;10.33;5.53;;;12.30;40.90;;;;;;4990685;28;20588;-73
2023/03/17 12:33:06;;;;;;;7.40;5.43;;;12.50;40.10;;;;;;5014189;28;20236;-72
2023/03/17 12:35:37;;;;;;;13.03;5.80;;;13.70;40.30;;;;;;5071907;28;20195;-71
2023/03/17 12:38:12;;;;;;;14.47;6.70;;;15.20;38.50;;;;;;5071709;28;20227;-71
2023/03/17 12:40:59;;;;;;;8.13;5.40;;;18.30;35.50;;;;;;5071724;28;20228;-71
2023/03/17 12:43:38;;;;;;;9.97;5.40;;;16.20;34.40;;;;;;5071985;28;20202;-73
2023/03/17 12:46:27;;;;;;;9.00;5.80;;;17.40;34.50;;;;;;5071764;28;20191;-73
2023/03/17 12:49:16;;;;;;;9.93;6.30;;;16.50;35.30;;;;;;5071707;28;20684;-69
2023/03/17 12:52:01;;;;;;;10.60;5.83;;;15.80;35.50;;;;;;5071804;28;20202;-68
2023/03/17 12:54:32;;;;;;;17.00;6.07;;;15.20;35.80;;;;;;5071709;28;20616;-68
2023/03/17 12:57:05;;;;;;;11.50;6.30;;;14.80;36.40;;;;;;5071651;28;20231;-67
2023/03/17 12:59:36;;;;;;;10.90;5.50;;;13.10;38.00;;;;;;5070266;28;20602;-70
2023/03/17 13:02:17;;;;;;;7.30;4.93;;;12.20;39.60;;;;;;5071693;28;20224;-70
2023/03/17 13:04:56;;;;;;;11.27;6.53;;;11.90;40.80;;;;;;5071451;28;20265;-69